sensor_id;sensor_type;location;lat;lon;timestamp;P1;durP1;ratioP1;P2;durP2;ratioP2
3401;SDS011;1714;49.756;8.610;2022-09-23T00:09:45;4.00;;;2.13;;
3401;SDS011;1714;49.756;8.610;2022-09-23T00:20:03;4.47;;;1.93;;
3401;SDS011;1714;49.756;8.610;2022-09-23T00:30:08;4.15;;;1.83;;
3401;SDS011;1714;49.756;8.610;2022-09-23T00:40:09;2.78;;;1.50;;
3401;SDS011;1714;49.756;8.610;2022-09-23T00:50:17;2.85;;;1.60;;
3401;SDS011;1714;49.756;8.610;2022-09-23T01:00:27;4.72;;;1.30;;
3401;SDS011;1714;49.756;8.610;2022-09-23T01:21:12;6.03;;;2.05;;
3401;SDS011;1714;49.756;8.610;2022-09-23T01:41:50;3.88;;;1.90;;
3401;SDS011;1714;49.756;8.610;2022-09-23T01:52:16;2.65;;;2.00;;
3401;SDS011;1714;49.756;8.610;2022-09-23T02:02:37;5.63;;;1.88;;
3401;SDS011;1714;49.756;8.610;2022-09-23T02:12:54;5.72;;;1.60;;
3401;SDS011;1714;49.756;8.610;2022-09-23T02:23:22;1.70;;;1.60;;
3401;SDS011;1714;49.756;8.610;2022-09-23T02:33:42;1.92;;;1.70;;
3401;SDS011;1714;49.756;8.610;2022-09-23T02:44:02;5.72;;;1.77;;
3401;SDS011;1714;49.756;8.610;2022-09-23T02:54:08;2.88;;;1.50;;
3401;SDS011;1714;49.756;8.610;2022-09-23T03:04:19;3.95;;;1.63;;
3401;SDS011;1714;49.756;8.610;2022-09-23T03:25:02;2.05;;;1.55;;
3401;SDS011;1714;49.756;8.610;2022-09-23T03:35:08;4.43;;;1.40;;
3401;SDS011;1714;49.756;8.610;2022-09-23T03:45:12;8.88;;;1.92;;
3401;SDS011;1714;49.756;8.610;2022-09-23T03:55:21;4.38;;;1.77;;
3401;SDS011;1714;49.756;8.610;2022-09-23T04:05:23;2.45;;;1.75;;
3401;SDS011;1714;49.756;8.610;2022-09-23T04:15:24;2.53;;;1.70;;
3401;SDS011;1714;49.756;8.610;2022-09-23T04:25:26;2.90;;;1.73;;
3401;SDS011;1714;49.756;8.610;2022-09-23T04:35:27;6.18;;;3.30;;
3401;SDS011;1714;49.756;8.610;2022-09-23T04:45:33;2.75;;;2.28;;
3401;SDS011;1714;49.756;8.610;2022-09-23T04:55:37;5.43;;;2.35;;
3401;SDS011;1714;49.756;8.610;2022-09-23T05:05:38;3.20;;;2.60;;
3401;SDS011;1714;49.756;8.610;2022-09-23T05:15:40;4.32;;;2.38;;
3401;SDS011;1714;49.756;8.610;2022-09-23T05:25:40;3.63;;;2.13;;
3401;SDS011;1714;49.756;8.610;2022-09-23T05:35:47;4.28;;;2.22;;
3401;SDS011;1714;49.756;8.610;2022-09-23T05:45:48;4.55;;;2.70;;
3401;SDS011;1714;49.756;8.610;2022-09-23T05:56:17;2.77;;;2.20;;
3401;SDS011;1714;49.756;8.610;2022-09-23T06:06:31;8.32;;;2.72;;
3401;SDS011;1714;49.756;8.610;2022-09-23T06:16:40;5.22;;;3.53;;
3401;SDS011;1714;49.756;8.610;2022-09-23T06:26:42;5.68;;;3.47;;
3401;SDS011;1714;49.756;8.610;2022-09-23T06:36:43;4.18;;;3.33;;
3401;SDS011;1714;49.756;8.610;2022-09-23T06:46:45;5.47;;;3.70;;
3401;SDS011;1714;49.756;8.610;2022-09-23T06:56:47;5.35;;;3.28;;
3401;SDS011;1714;49.756;8.610;2022-09-23T07:06:51;16.70;;;4.55;;
3401;SDS011;1714;49.756;8.610;2022-09-23T07:16:54;5.50;;;4.05;;
3401;SDS011;1714;49.756;8.610;2022-09-23T07:26:55;12.68;;;4.65;;
3401;SDS011;1714;49.756;8.610;2022-09-23T07:36:58;8.18;;;4.35;;
3401;SDS011;1714;49.756;8.610;2022-09-23T07:47:00;8.02;;;3.88;;
3401;SDS011;1714;49.756;8.610;2022-09-23T07:57:01;8.55;;;4.07;;
3401;SDS011;1714;49.756;8.610;2022-09-23T08:07:03;6.70;;;3.55;;
3401;SDS011;1714;49.756;8.610;2022-09-23T08:17:07;7.15;;;3.85;;
3401;SDS011;1714;49.756;8.610;2022-09-23T08:27:10;4.18;;;3.65;;
3401;SDS011;1714;49.756;8.610;2022-09-23T08:37:11;6.63;;;4.45;;
3401;SDS011;1714;49.756;8.610;2022-09-23T08:47:20;4.88;;;3.60;;
3401;SDS011;1714;49.756;8.610;2022-09-23T09:07:39;5.47;;;4.23;;
3401;SDS011;1714;49.756;8.610;2022-09-23T09:28:17;10.40;;;3.63;;
3401;SDS011;1714;49.756;8.610;2022-09-23T09:38:25;6.00;;;3.63;;
3401;SDS011;1714;49.756;8.610;2022-09-23T09:48:53;6.93;;;3.85;;
3401;SDS011;1714;49.756;8.610;2022-09-23T09:59:07;4.07;;;3.38;;
3401;SDS011;1714;49.756;8.610;2022-09-23T10:09:17;6.25;;;2.80;;
3401;SDS011;1714;49.756;8.610;2022-09-23T10:19:24;3.95;;;3.03;;
3401;SDS011;1714;49.756;8.610;2022-09-23T10:29:29;6.67;;;2.80;;
3401;SDS011;1714;49.756;8.610;2022-09-23T10:39:34;5.53;;;2.42;;
3401;SDS011;1714;49.756;8.610;2022-09-23T10:50:02;3.22;;;2.92;;
3401;SDS011;1714;49.756;8.610;2022-09-23T11:00:45;3.47;;;3.17;;
3401;SDS011;1714;49.756;8.610;2022-09-23T11:11:01;4.95;;;3.53;;
3401;SDS011;1714;49.756;8.610;2022-09-23T11:21:29;4.70;;;3.53;;
3401;SDS011;1714;49.756;8.610;2022-09-23T11:52:14;4.60;;;2.90;;
3401;SDS011;1714;49.756;8.610;2022-09-23T12:13:12;7.50;;;3.22;;
3401;SDS011;1714;49.756;8.610;2022-09-23T12:33:49;5.28;;;3.53;;
3401;SDS011;1714;49.756;8.610;2022-09-23T12:43:57;4.03;;;3.47;;
3401;SDS011;1714;49.756;8.610;2022-09-23T12:54:22;4.38;;;2.67;;
3401;SDS011;1714;49.756;8.610;2022-09-23T13:15:39;4.50;;;2.58;;
3401;SDS011;1714;49.756;8.610;2022-09-23T13:25:39;5.28;;;1.65;;
3401;SDS011;1714;49.756;8.610;2022-09-23T13:35:43;5.75;;;1.80;;
3401;SDS011;1714;49.756;8.610;2022-09-23T13:45:53;3.58;;;1.77;;
3401;SDS011;1714;49.756;8.610;2022-09-23T13:56:15;4.15;;;1.90;;
3401;SDS011;1714;49.756;8.610;2022-09-23T14:06:19;4.93;;;2.03;;
3401;SDS011;1714;49.756;8.610;2022-09-23T14:16:21;2.03;;;1.70;;
3401;SDS011;1714;49.756;8.610;2022-09-23T14:26:27;3.17;;;1.83;;
3401;SDS011;1714;49.756;8.610;2022-09-23T14:36:33;2.80;;;1.75;;
3401;SDS011;1714;49.756;8.610;2022-09-23T14:46:56;2.75;;;2.25;;
3401;SDS011;1714;49.756;8.610;2022-09-23T14:56:58;2.72;;;1.70;;
3401;SDS011;1714;49.756;8.610;2022-09-23T15:07:18;2.83;;;1.33;;
3401;SDS011;1714;49.756;8.610;2022-09-23T15:27:26;4.25;;;2.00;;
3401;SDS011;1714;49.756;8.610;2022-09-23T15:37:30;8.82;;;2.20;;
3401;SDS011;1714;49.756;8.610;2022-09-23T15:47:33;3.67;;;1.77;;
3401;SDS011;1714;49.756;8.610;2022-09-23T15:57:36;5.40;;;1.98;;
3401;SDS011;1714;49.756;8.610;2022-09-23T16:07:38;1.98;;;1.85;;
3401;SDS011;1714;49.756;8.610;2022-09-23T16:17:40;6.40;;;2.33;;
3401;SDS011;1714;49.756;8.610;2022-09-23T16:27:43;6.95;;;2.45;;
3401;SDS011;1714;49.756;8.610;2022-09-23T16:37:45;7.13;;;3.42;;
3401;SDS011;1714;49.756;8.610;2022-09-23T16:47:47;4.22;;;3.00;;
3401;SDS011;1714;49.756;8.610;2022-09-23T16:57:50;4.25;;;1.85;;
3401;SDS011;1714;49.756;8.610;2022-09-23T17:07:56;3.97;;;2.35;;
3401;SDS011;1714;49.756;8.610;2022-09-23T17:17:58;4.50;;;2.25;;
3401;SDS011;1714;49.756;8.610;2022-09-23T17:28:01;3.42;;;2.92;;
3401;SDS011;1714;49.756;8.610;2022-09-23T17:38:02;8.15;;;3.38;;
3401;SDS011;1714;49.756;8.610;2022-09-23T17:48:04;3.58;;;3.00;;
3401;SDS011;1714;49.756;8.610;2022-09-23T17:58:06;7.32;;;3.90;;
3401;SDS011;1714;49.756;8.610;2022-09-23T18:08:07;6.22;;;4.35;;
3401;SDS011;1714;49.756;8.610;2022-09-23T18:18:09;10.57;;;5.93;;
3401;SDS011;1714;49.756;8.610;2022-09-23T18:28:11;7.38;;;5.40;;
3401;SDS011;1714;49.756;8.610;2022-09-23T18:38:12;7.68;;;4.50;;
3401;SDS011;1714;49.756;8.610;2022-09-23T18:48:14;8.20;;;4.70;;
3401;SDS011;1714;49.756;8.610;2022-09-23T18:58:34;13.15;;;5.28;;
3401;SDS011;1714;49.756;8.610;2022-09-23T19:08:36;7.68;;;4.82;;
3401;SDS011;1714;49.756;8.610;2022-09-23T19:18:38;15.02;;;6.85;;
3401;SDS011;1714;49.756;8.610;2022-09-23T19:28:45;11.18;;;7.30;;
3401;SDS011;1714;49.756;8.610;2022-09-23T19:48:53;9.32;;;4.22;;
3401;SDS011;1714;49.756;8.610;2022-09-23T19:58:55;4.65;;;3.63;;
3401;SDS011;1714;49.756;8.610;2022-09-23T20:08:57;9.18;;;3.47;;
3401;SDS011;1714;49.756;8.610;2022-09-23T20:19:02;8.00;;;3.97;;
3401;SDS011;1714;49.756;8.610;2022-09-23T20:29:04;13.93;;;8.18;;
3401;SDS011;1714;49.756;8.610;2022-09-23T20:39:08;10.10;;;7.05;;
3401;SDS011;1714;49.756;8.610;2022-09-23T20:49:10;9.23;;;6.43;;
3401;SDS011;1714;49.756;8.610;2022-09-23T20:59:12;6.63;;;4.38;;
3401;SDS011;1714;49.756;8.610;2022-09-23T21:09:16;10.50;;;3.65;;
3401;SDS011;1714;49.756;8.610;2022-09-23T21:19:19;5.32;;;3.88;;
3401;SDS011;1714;49.756;8.610;2022-09-23T21:29:21;7.63;;;2.90;;
3401;SDS011;1714;49.756;8.610;2022-09-23T21:39:23;3.67;;;2.67;;
3401;SDS011;1714;49.756;8.610;2022-09-23T21:49:24;5.35;;;3.53;;
3401;SDS011;1714;49.756;8.610;2022-09-23T21:59:26;7.97;;;4.72;;
3401;SDS011;1714;49.756;8.610;2022-09-23T22:09:28;7.40;;;5.13;;
3401;SDS011;1714;49.756;8.610;2022-09-23T22:19:34;10.18;;;6.00;;
3401;SDS011;1714;49.756;8.610;2022-09-23T22:29:44;12.45;;;6.28;;
3401;SDS011;1714;49.756;8.610;2022-09-23T22:40:06;11.40;;;5.90;;
3401;SDS011;1714;49.756;8.610;2022-09-23T22:50:13;10.00;;;6.28;;
3401;SDS011;1714;49.756;8.610;2022-09-23T23:00:15;9.02;;;4.82;;
3401;SDS011;1714;49.756;8.610;2022-09-23T23:10:16;7.97;;;4.68;;
3401;SDS011;1714;49.756;8.610;2022-09-23T23:20:18;6.25;;;4.30;;
3401;SDS011;1714;49.756;8.610;2022-09-23T23:30:24;5.68;;;3.28;;
3401;SDS011;1714;49.756;8.610;2022-09-23T23:40:25;8.95;;;5.18;;
3401;SDS011;1714;49.756;8.610;2022-09-23T23:50:27;7.30;;;3.88;;
